Terminal Aerodrome Forecast
Issued by NWS

Home | Current Version | Previous Version | Graphics & Text | Print | Product List | Glossary On
Versions: 1 2 3 4 5 6 7 8 9 10 11 12 13 14 15 16
000
FTUS43 KABR 262325
TAFMBG
TAF
KMBG 262325Z 2700/2724 25008KT P6SM SCT200
     FM271000 VRB04KT P6SM SCT250
     FM271700 08009KT P6SM VCSH SCT100 BKN200=

USA.gov is the U.S. government's official web portal to all federal, state and local government web resources and services.